createdAt,value
2022-07-27T00:02:32.555Z,1.60
2022-07-27T00:07:37.733Z,1.30
2022-07-27T00:12:41.708Z,1.70
2022-07-27T00:17:45.099Z,1.20
2022-07-27T00:22:49.824Z,1.65
2022-07-27T00:27:53.217Z,2.00
2022-07-27T00:32:57.474Z,2.42
2022-07-27T00:38:02.191Z,2.35
2022-07-27T00:43:05.555Z,1.83
2022-07-27T00:48:09.138Z,2.20
2022-07-27T00:53:14.250Z,2.00
2022-07-27T00:58:18.392Z,2.33
2022-07-27T01:03:23.275Z,2.17
2022-07-27T01:08:35.414Z,2.85
2022-07-27T01:13:39.481Z,2.75
2022-07-27T01:18:43.362Z,2.40
2022-07-27T01:23:48.116Z,2.40
2022-07-27T01:28:51.508Z,2.97
2022-07-27T01:33:55.331Z,2.42
2022-07-27T01:39:00.332Z,2.90
2022-07-27T01:44:03.747Z,3.35
2022-07-27T01:49:07.607Z,2.30
2022-07-27T01:54:12.502Z,2.50
2022-07-27T01:59:16.854Z,2.50
2022-07-27T02:04:20.846Z,2.47
2022-07-27T02:09:25.967Z,2.97
2022-07-27T02:14:29.297Z,2.92
2022-07-27T02:19:32.672Z,2.78
2022-07-27T02:24:39.216Z,2.92
2022-07-27T02:29:42.839Z,2.72
2022-07-27T02:34:46.246Z,2.60
2022-07-27T02:39:50.982Z,2.88
2022-07-27T02:44:54.546Z,2.42
2022-07-27T02:49:58.029Z,2.50
2022-07-27T02:55:03.345Z,2.60
2022-07-27T03:00:09.246Z,3.30
2022-07-27T03:05:12.639Z,3.17
2022-07-27T03:10:17.438Z,3.42
2022-07-27T03:15:20.900Z,2.83
2022-07-27T03:20:24.450Z,3.17
2022-07-27T03:25:32.486Z,2.83
2022-07-27T03:30:36.236Z,3.20
2022-07-27T03:35:39.876Z,3.05
2022-07-27T03:40:45.478Z,3.15
2022-07-27T03:45:49.191Z,2.90
2022-07-27T03:50:53.164Z,3.75
2022-07-27T03:55:58.180Z,3.08
2022-07-27T04:01:01.665Z,3.65
2022-07-27T04:06:05.532Z,3.05
2022-07-27T04:11:10.205Z,3.50
2022-07-27T04:16:15.478Z,3.55
2022-07-27T04:21:18.925Z,2.97
2022-07-27T04:26:23.567Z,3.75
2022-07-27T04:31:27.246Z,3.40
2022-07-27T04:36:30.581Z,3.70
2022-07-27T04:41:37.219Z,3.08
2022-07-27T04:46:40.668Z,3.65
2022-07-27T04:51:45.955Z,3.85
2022-07-27T04:56:51.015Z,3.30
2022-07-27T05:01:54.500Z,3.70
2022-07-27T05:06:58.095Z,3.47
2022-07-27T05:12:03.096Z,2.80
2022-07-27T05:17:06.817Z,3.10
2022-07-27T05:22:10.546Z,3.25
2022-07-27T05:27:15.733Z,2.83
2022-07-27T05:32:19.103Z,2.75
2022-07-27T05:37:22.481Z,2.80
2022-07-27T05:42:27.371Z,4.05
2022-07-27T05:47:30.967Z,3.72
2022-07-27T05:52:36.308Z,4.18
2022-07-27T05:57:42.116Z,3.58
2022-07-27T06:02:45.768Z,3.60
2022-07-27T06:08:02.935Z,3.28
2022-07-27T06:13:09.216Z,3.15
2022-07-27T06:18:18.223Z,2.83
2022-07-27T06:23:21.637Z,2.63
2022-07-27T06:28:26.470Z,3.05
2022-07-27T06:33:30.847Z,3.10
2022-07-27T06:38:34.712Z,3.13
2022-07-27T06:43:39.642Z,3.67
2022-07-27T06:48:43.548Z,2.90
2022-07-27T06:53:53.214Z,2.60
2022-07-27T06:59:00.811Z,3.63
2022-07-27T07:04:04.646Z,3.00
2022-07-27T07:09:08.790Z,2.50
2022-07-27T07:14:14.936Z,2.00
2022-07-27T07:19:18.751Z,2.90
2022-07-27T07:24:22.483Z,1.90
2022-07-27T07:29:27.850Z,1.90
2022-07-27T07:34:31.251Z,2.30
2022-07-27T07:39:34.962Z,1.98
2022-07-27T07:44:40.062Z,2.33
2022-07-27T07:49:43.781Z,2.40
2022-07-27T07:54:47.639Z,2.75
2022-07-27T07:59:52.404Z,2.17
2022-07-27T08:04:55.809Z,1.85
2022-07-27T08:09:59.397Z,2.38
2022-07-27T08:15:04.201Z,2.40
2022-07-27T08:20:10.646Z,1.83
2022-07-27T08:25:14.427Z,1.92
2022-07-27T08:30:19.126Z,2.25
2022-07-27T08:35:23.752Z,1.65
2022-07-27T08:40:45.513Z,2.28
2022-07-27T08:45:56.259Z,1.70
2022-07-27T08:50:59.667Z,1.70
2022-07-27T08:56:03.311Z,1.67
2022-07-27T09:01:08.081Z,1.63
2022-07-27T09:06:11.499Z,1.92
2022-07-27T09:11:16.184Z,1.60
2022-07-27T09:17:02.898Z,1.88
2022-07-27T09:21:54.584Z,1.77
2022-07-27T09:27:04.178Z,1.25
2022-07-27T09:32:16.836Z,1.75
2022-07-27T09:37:25.659Z,2.42
2022-07-27T09:43:05.723Z,2.22
2022-07-27T09:47:54.385Z,2.40
2022-07-27T09:53:41.254Z,2.30
2022-07-27T09:58:48.004Z,3.00
2022-07-27T10:03:54.902Z,3.20
2022-07-27T10:09:00.663Z,2.03
2022-07-27T10:14:04.456Z,2.80
2022-07-27T10:19:15.060Z,3.10
2022-07-27T10:24:27.033Z,3.05
2022-07-27T10:29:30.567Z,3.22
2022-07-27T10:34:37.562Z,3.17
2022-07-27T10:39:43.196Z,3.03
2022-07-27T10:45:07.397Z,3.10
2022-07-27T10:50:48.039Z,2.80
2022-07-27T10:55:52.600Z,1.95
2022-07-27T11:01:03.973Z,2.13
2022-07-27T11:11:34.917Z,1.45
2022-07-27T11:16:54.462Z,1.80
2022-07-27T11:22:04.558Z,1.55
2022-07-27T11:27:16.288Z,1.88
2022-07-27T11:32:22.353Z,1.30
2022-07-27T11:37:27.309Z,1.52
2022-07-27T11:42:39.083Z,2.55
2022-07-27T11:53:01.285Z,1.80
2022-07-27T11:58:05.578Z,3.10
2022-07-27T12:03:10.047Z,1.90
2022-07-27T12:08:15.388Z,1.67
2022-07-27T12:13:20.307Z,1.80
2022-07-27T12:18:23.714Z,1.80
2022-07-27T12:23:31.800Z,1.70
2022-07-27T12:28:35.479Z,1.52
2022-07-27T12:33:39.241Z,1.70
2022-07-27T12:38:46.481Z,1.75
2022-07-27T12:44:05.630Z,1.60
2022-07-27T12:49:17.285Z,1.48
2022-07-27T12:54:22.413Z,1.00
2022-07-27T12:59:25.817Z,1.30
2022-07-27T13:04:29.190Z,1.73
2022-07-27T13:10:01.894Z,1.83
2022-07-27T13:14:59.048Z,1.48
2022-07-27T13:20:02.439Z,1.60
2022-07-27T13:25:16.562Z,1.55
2022-07-27T13:30:21.173Z,0.70
2022-07-27T13:35:24.582Z,1.45
2022-07-27T13:40:29.453Z,1.45
2022-07-27T13:45:43.033Z,1.33
2022-07-27T13:50:47.201Z,1.00
2022-07-27T13:55:52.289Z,0.77
2022-07-27T14:00:55.856Z,1.13
2022-07-27T14:05:59.292Z,1.48
2022-07-27T14:11:04.421Z,1.55
2022-07-27T14:16:08.905Z,1.58
2022-07-27T14:21:12.641Z,1.60
2022-07-27T14:26:17.739Z,1.27
2022-07-27T14:31:22.275Z,1.90
2022-07-27T14:36:25.686Z,1.52
2022-07-27T14:41:31.396Z,1.92
2022-07-27T14:46:34.829Z,1.58
2022-07-27T14:51:39.493Z,1.90
2022-07-27T14:56:44.552Z,1.77
2022-07-27T15:01:48.094Z,2.95
2022-07-27T15:06:51.884Z,1.55
2022-07-27T15:11:57.169Z,2.83
2022-07-27T15:17:01.110Z,1.75
2022-07-27T15:22:04.713Z,1.40
2022-07-27T15:27:09.587Z,1.60
2022-07-27T15:32:13.764Z,1.42
2022-07-27T15:37:17.135Z,1.10
2022-07-27T15:42:21.936Z,1.42
2022-07-27T15:47:25.605Z,1.58
2022-07-27T15:52:28.990Z,1.25
2022-07-27T15:57:34.071Z,1.13
2022-07-27T16:02:37.743Z,1.17
2022-07-27T16:07:41.768Z,1.48
2022-07-27T16:12:46.732Z,1.30
2022-07-27T16:17:50.142Z,1.20
2022-07-27T16:22:55.968Z,1.83
2022-07-27T16:28:00.996Z,1.42
2022-07-27T16:33:04.470Z,1.85
2022-07-27T16:38:07.821Z,1.70
2022-07-27T16:43:13.106Z,1.48
2022-07-27T16:48:17.109Z,1.55
2022-07-27T16:53:21.035Z,1.55
2022-07-27T16:58:26.846Z,1.95
2022-07-27T17:03:30.759Z,1.40
2022-07-27T17:08:34.651Z,1.88
2022-07-27T17:13:40.275Z,1.58
2022-07-27T17:23:53.664Z,1.85
2022-07-27T17:28:58.472Z,1.45
2022-07-27T17:34:02.913Z,1.33
2022-07-27T17:39:06.603Z,1.50
2022-07-27T17:44:12.038Z,1.58
2022-07-27T17:49:15.945Z,1.65
2022-07-27T17:54:19.906Z,2.13
2022-07-27T17:59:37.450Z,1.40
2022-07-27T18:04:41.622Z,1.25
2022-07-27T18:09:44.984Z,1.60
2022-07-27T18:15:08.033Z,1.23
2022-07-27T18:25:15.555Z,1.05
2022-07-27T18:30:20.697Z,1.40
2022-07-27T18:35:24.222Z,1.50
2022-07-27T18:40:27.931Z,1.98
2022-07-27T18:45:34.621Z,1.92
2022-07-27T18:50:39.828Z,2.42
2022-07-27T18:55:43.401Z,1.20
2022-07-27T19:00:48.437Z,1.73
2022-07-27T19:05:52.907Z,2.40
2022-07-27T19:10:56.796Z,3.30
2022-07-27T19:16:01.607Z,4.53
2022-07-27T19:21:05.495Z,4.45
2022-07-27T19:26:10.183Z,3.00
2022-07-27T19:31:22.397Z,1.65
2022-07-27T19:36:28.058Z,1.83
2022-07-27T19:41:31.705Z,2.10
2022-07-27T19:46:36.685Z,1.50
2022-07-27T19:51:40.237Z,1.92
2022-07-27T19:56:43.807Z,1.77
2022-07-27T20:01:48.964Z,1.98
2022-07-27T20:06:52.462Z,2.28
2022-07-27T20:12:00.245Z,2.15
2022-07-27T20:17:06.114Z,2.28
2022-07-27T20:22:09.968Z,2.10
2022-07-27T20:27:13.616Z,1.85
2022-07-27T20:32:18.491Z,2.20
2022-07-27T20:37:21.880Z,2.83
2022-07-27T20:42:25.400Z,2.28
2022-07-27T20:47:34.541Z,2.55
2022-07-27T20:52:38.571Z,2.40
2022-07-27T20:57:42.307Z,1.63
2022-07-27T21:02:48.452Z,2.30
2022-07-27T21:07:51.915Z,2.28
2022-07-27T21:12:55.734Z,7.70
2022-07-27T21:18:00.544Z,2.90
2022-07-27T21:23:21.749Z,2.00
2022-07-27T21:28:25.473Z,2.03
2022-07-27T21:33:30.139Z,2.53
2022-07-27T21:38:33.583Z,2.35
2022-07-27T21:43:36.884Z,2.78
2022-07-27T21:48:42.115Z,2.88
2022-07-27T21:53:45.655Z,2.72
2022-07-27T21:58:49.433Z,2.38
2022-07-27T22:03:54.293Z,3.03
2022-07-27T22:08:57.707Z,6.53
2022-07-27T22:14:01.519Z,3.03
2022-07-27T22:19:06.320Z,3.25
2022-07-27T22:24:10.122Z,3.33
2022-07-27T22:29:13.624Z,2.97
2022-07-27T22:34:18.604Z,3.20
2022-07-27T22:39:21.921Z,3.85
2022-07-27T22:44:25.291Z,3.67
2022-07-27T22:49:29.989Z,2.80
2022-07-27T22:54:34.471Z,3.35
2022-07-27T22:59:38.497Z,4.25
2022-07-27T23:04:43.196Z,3.17
2022-07-27T23:09:46.536Z,3.35
2022-07-27T23:14:50.513Z,3.10
2022-07-27T23:19:55.227Z,3.38
2022-07-27T23:24:58.613Z,4.55
2022-07-27T23:30:02.008Z,5.93
2022-07-27T23:35:07.559Z,3.65
2022-07-27T23:40:12.210Z,3.00
2022-07-27T23:45:15.569Z,3.40
2022-07-27T23:50:20.312Z,3.22
2022-07-27T23:55:23.698Z,3.53
